ウラジオストク の空港の天気 - METARとTAF

ウラジオストク空港 ( UHWW / VVO ) - ロシア ウラジオストク
飛行場実況気象(Metar)
観測時間05/25 14:00 VLAT (05/25 04:00 UTC)
風向・風速南東 5m/s
視程10km以上
天気現象
全天の4割程度の雲 雲底高度 1010m
気温20℃
湿度43%
気圧1006hPa
METARUHWW 250400Z 14005MPS 9999 SCT033 20/07 Q1006 R25L/0///70 NOSIG RMK QFE753
過去の天気等 Google飛行場航空写真 Wunderground天気予報

過去48時間のMETAR

飛行場予報(TAF)
発表時間: 5/25 11:55 VLAT (5/25 01:55 UTC)
予報対象時間: 25日13時 VLAT ~ 26日13時 VLAT
風向・風速南西 3m/s
視程10km以上
全天の4割程度の積乱雲 雲底高度 760m
25日13時 VLAT ~ 25日19時 VLAT に一時的に
視程5000m
天気現象弱いしゅう雨
全天の8割程度の積乱雲 雲底高度 520m
25日19時 VLAT ~ 25日21時 VLAT に徐々に
視程3100m
天気現象弱いしゅう雨 もや
全天の8割程度の雲 雲底高度 340m
全天の8割程度の積乱雲 雲底高度 460m
25日23時 VLAT ~ 26日1時 VLAT に徐々に
風向・風速東南東 3m/s
TAF UHWW 250155Z 2503/2603 22003MPS 9999 SCT025CB
TEMPO 2503/2509 5000 -SHRA BKN017CB
BECMG 2509/2511 3100 -SHRA BR BKN011 BKN015CB
BECMG 2513/2515 12003MPS